Cochiti Pueblo, New Mexico
Current Conditions -  °F | °C
As of 5:53 PM on Wednesday 22 Oct 2014 (Local Time) from KSAF Reporting Station
Few Clouds Few Clouds  
Wind Chill: 65°   Ceiling: Unl
Heat Index: 65°   Visibility: 10mi
Dew Point: 38°   Wind: 7mph
Humidity: 37%   Direction: 30°NNE
Pressure: 30.16"   Gusts: NA
Location:  35.61°N, 106.34°W
Report Text: KSAF 222353Z 03006KT 10SM FEW090 18/03 A3016 RMK AO2 SLP143 T01830033 10211 20172 55001
Loading
Personal Weather Stations






























Interactive Weather Map
Tropical Storm Tracking
New forecast layout! Learn more

10-Day Weather Forecast

Advertisements
Track Severe Weather on mobile